sensor_id;sensor_type;location;lat;lon;timestamp;temperature;humidity
6357;DHT22;3211;53.452;-2.264;2023-05-07T00:02:36;14.70;99.90
6357;DHT22;3211;53.452;-2.264;2023-05-07T00:05:19;14.70;99.90
6357;DHT22;3211;53.452;-2.264;2023-05-07T00:08:01;14.70;99.90
6357;DHT22;3211;53.452;-2.264;2023-05-07T00:10:43;14.60;99.90
6357;DHT22;3211;53.452;-2.264;2023-05-07T00:13:26;14.60;99.90
6357;DHT22;3211;53.452;-2.264;2023-05-07T00:16:11;14.60;99.90
6357;DHT22;3211;53.452;-2.264;2023-05-07T00:18:53;14.60;99.90
6357;DHT22;3211;53.452;-2.264;2023-05-07T00:21:35;14.60;99.90
6357;DHT22;3211;53.452;-2.264;2023-05-07T00:24:17;14.70;99.90
6357;DHT22;3211;53.452;-2.264;2023-05-07T00:26:59;14.60;99.90
6357;DHT22;3211;53.452;-2.264;2023-05-07T00:29:42;14.50;99.90
6357;DHT22;3211;53.452;-2.264;2023-05-07T00:32:24;14.40;99.90
6357;DHT22;3211;53.452;-2.264;2023-05-07T00:35:07;14.40;99.90
6357;DHT22;3211;53.452;-2.264;2023-05-07T00:37:49;14.40;99.90
6357;DHT22;3211;53.452;-2.264;2023-05-07T00:40:31;14.40;99.90
6357;DHT22;3211;53.452;-2.264;2023-05-07T00:43:13;14.30;99.90
6357;DHT22;3211;53.452;-2.264;2023-05-07T00:45:56;14.30;99.90
6357;DHT22;3211;53.452;-2.264;2023-05-07T00:48:39;14.30;99.90
6357;DHT22;3211;53.452;-2.264;2023-05-07T00:51:21;14.40;99.90
6357;DHT22;3211;53.452;-2.264;2023-05-07T00:54:03;14.40;99.90
6357;DHT22;3211;53.452;-2.264;2023-05-07T00:56:45;14.30;99.90
6357;DHT22;3211;53.452;-2.264;2023-05-07T00:59:27;14.30;99.90
6357;DHT22;3211;53.452;-2.264;2023-05-07T01:02:11;14.30;99.90
6357;DHT22;3211;53.452;-2.264;2023-05-07T01:04:53;14.30;99.90
6357;DHT22;3211;53.452;-2.264;2023-05-07T01:07:37;14.40;99.90
6357;DHT22;3211;53.452;-2.264;2023-05-07T01:10:20;14.40;99.90
6357;DHT22;3211;53.452;-2.264;2023-05-07T01:13:02;14.40;99.90
6357;DHT22;3211;53.452;-2.264;2023-05-07T01:15:44;14.40;99.90
6357;DHT22;3211;53.452;-2.264;2023-05-07T01:18:27;14.30;99.90
6357;DHT22;3211;53.452;-2.264;2023-05-07T01:21:11;14.40;99.90
6357;DHT22;3211;53.452;-2.264;2023-05-07T01:23:55;14.30;99.90
6357;DHT22;3211;53.452;-2.264;2023-05-07T01:26:38;14.20;99.90
6357;DHT22;3211;53.452;-2.264;2023-05-07T01:29:20;14.30;99.90
6357;DHT22;3211;53.452;-2.264;2023-05-07T01:32:02;14.30;99.90
6357;DHT22;3211;53.452;-2.264;2023-05-07T01:34:46;14.20;99.90
6357;DHT22;3211;53.452;-2.264;2023-05-07T01:37:30;14.20;99.90
6357;DHT22;3211;53.452;-2.264;2023-05-07T01:40:13;14.20;99.90
6357;DHT22;3211;53.452;-2.264;2023-05-07T01:42:56;14.10;99.90
6357;DHT22;3211;53.452;-2.264;2023-05-07T01:45:39;14.10;99.90
6357;DHT22;3211;53.452;-2.264;2023-05-07T01:48:22;14.00;99.90
6357;DHT22;3211;53.452;-2.264;2023-05-07T01:51:04;14.00;99.90
6357;DHT22;3211;53.452;-2.264;2023-05-07T01:53:47;14.00;99.90
6357;DHT22;3211;53.452;-2.264;2023-05-07T01:56:32;14.00;99.90
6357;DHT22;3211;53.452;-2.264;2023-05-07T01:59:14;14.00;99.90
6357;DHT22;3211;53.452;-2.264;2023-05-07T02:01:56;13.90;99.90
6357;DHT22;3211;53.452;-2.264;2023-05-07T02:04:38;13.90;99.90
6357;DHT22;3211;53.452;-2.264;2023-05-07T02:07:20;13.90;99.90
6357;DHT22;3211;53.452;-2.264;2023-05-07T02:10:03;13.90;99.90
6357;DHT22;3211;53.452;-2.264;2023-05-07T02:12:47;13.90;99.90
6357;DHT22;3211;53.452;-2.264;2023-05-07T02:15:29;13.90;99.90
6357;DHT22;3211;53.452;-2.264;2023-05-07T02:18:10;13.90;99.90
6357;DHT22;3211;53.452;-2.264;2023-05-07T02:20:52;13.90;99.90
6357;DHT22;3211;53.452;-2.264;2023-05-07T02:23:34;13.90;99.90
6357;DHT22;3211;53.452;-2.264;2023-05-07T02:26:17;13.90;99.90
6357;DHT22;3211;53.452;-2.264;2023-05-07T02:29:00;13.90;99.90
6357;DHT22;3211;53.452;-2.264;2023-05-07T02:31:43;13.90;99.90
6357;DHT22;3211;53.452;-2.264;2023-05-07T02:34:25;14.00;99.90
6357;DHT22;3211;53.452;-2.264;2023-05-07T02:37:07;14.00;99.90
6357;DHT22;3211;53.452;-2.264;2023-05-07T02:39:49;14.00;99.90
6357;DHT22;3211;53.452;-2.264;2023-05-07T02:42:31;14.00;99.90
6357;DHT22;3211;53.452;-2.264;2023-05-07T02:45:14;14.00;99.90
6357;DHT22;3211;53.452;-2.264;2023-05-07T02:47:56;14.00;99.90
6357;DHT22;3211;53.452;-2.264;2023-05-07T02:50:38;14.20;99.90
6357;DHT22;3211;53.452;-2.264;2023-05-07T02:53:20;14.20;99.90
6357;DHT22;3211;53.452;-2.264;2023-05-07T02:56:02;14.20;99.90
6357;DHT22;3211;53.452;-2.264;2023-05-07T02:58:44;14.20;99.90
6357;DHT22;3211;53.452;-2.264;2023-05-07T03:01:27;14.10;99.90
6357;DHT22;3211;53.452;-2.264;2023-05-07T03:04:10;14.20;99.90
6357;DHT22;3211;53.452;-2.264;2023-05-07T03:06:51;14.10;99.90
6357;DHT22;3211;53.452;-2.264;2023-05-07T03:09:33;14.10;99.90
6357;DHT22;3211;53.452;-2.264;2023-05-07T03:12:15;14.10;99.90
6357;DHT22;3211;53.452;-2.264;2023-05-07T03:14:57;14.00;99.90
6357;DHT22;3211;53.452;-2.264;2023-05-07T03:17:41;14.00;99.90
6357;DHT22;3211;53.452;-2.264;2023-05-07T03:20:23;14.10;99.90
6357;DHT22;3211;53.452;-2.264;2023-05-07T03:23:05;14.00;99.90
6357;DHT22;3211;53.452;-2.264;2023-05-07T03:25:47;14.00;99.90
6357;DHT22;3211;53.452;-2.264;2023-05-07T03:28:30;14.00;99.90
6357;DHT22;3211;53.452;-2.264;2023-05-07T03:31:12;14.00;99.90
6357;DHT22;3211;53.452;-2.264;2023-05-07T03:33:56;13.80;99.90
6357;DHT22;3211;53.452;-2.264;2023-05-07T03:36:38;13.70;99.90
6357;DHT22;3211;53.452;-2.264;2023-05-07T03:39:20;13.80;99.90
6357;DHT22;3211;53.452;-2.264;2023-05-07T03:42:03;13.80;99.90
6357;DHT22;3211;53.452;-2.264;2023-05-07T03:44:50;13.70;99.90
6357;DHT22;3211;53.452;-2.264;2023-05-07T03:47:32;13.70;99.90
6357;DHT22;3211;53.452;-2.264;2023-05-07T03:50:15;13.70;99.90
6357;DHT22;3211;53.452;-2.264;2023-05-07T03:52:57;13.70;99.90
6357;DHT22;3211;53.452;-2.264;2023-05-07T03:55:39;13.80;99.90
6357;DHT22;3211;53.452;-2.264;2023-05-07T03:58:21;13.80;99.90
6357;DHT22;3211;53.452;-2.264;2023-05-07T04:01:03;13.70;99.90
6357;DHT22;3211;53.452;-2.264;2023-05-07T04:03:45;13.80;99.90
6357;DHT22;3211;53.452;-2.264;2023-05-07T04:06:29;13.80;99.90
6357;DHT22;3211;53.452;-2.264;2023-05-07T04:09:11;13.80;99.90
6357;DHT22;3211;53.452;-2.264;2023-05-07T04:11:53;13.80;99.90
6357;DHT22;3211;53.452;-2.264;2023-05-07T04:14:35;13.70;99.90
6357;DHT22;3211;53.452;-2.264;2023-05-07T04:17:17;13.50;99.90
6357;DHT22;3211;53.452;-2.264;2023-05-07T04:19:59;13.70;99.90
6357;DHT22;3211;53.452;-2.264;2023-05-07T04:22:42;13.70;99.90
6357;DHT22;3211;53.452;-2.264;2023-05-07T04:25:25;13.80;99.90
6357;DHT22;3211;53.452;-2.264;2023-05-07T04:28:07;13.80;99.90
6357;DHT22;3211;53.452;-2.264;2023-05-07T04:30:49;13.80;99.90
6357;DHT22;3211;53.452;-2.264;2023-05-07T04:33:32;13.70;99.90
6357;DHT22;3211;53.452;-2.264;2023-05-07T04:36:14;13.70;99.90
6357;DHT22;3211;53.452;-2.264;2023-05-07T04:38:57;13.70;99.90
6357;DHT22;3211;53.452;-2.264;2023-05-07T04:41:39;13.70;99.90
6357;DHT22;3211;53.452;-2.264;2023-05-07T04:44:21;13.70;99.90
6357;DHT22;3211;53.452;-2.264;2023-05-07T04:47:03;13.70;99.90
6357;DHT22;3211;53.452;-2.264;2023-05-07T04:49:45;13.80;99.90
6357;DHT22;3211;53.452;-2.264;2023-05-07T04:52:27;13.80;99.90
6357;DHT22;3211;53.452;-2.264;2023-05-07T04:55:11;13.70;99.90
6357;DHT22;3211;53.452;-2.264;2023-05-07T04:57:53;13.80;99.90
6357;DHT22;3211;53.452;-2.264;2023-05-07T05:00:35;13.90;99.90
6357;DHT22;3211;53.452;-2.264;2023-05-07T05:03:17;13.90;99.90
6357;DHT22;3211;53.452;-2.264;2023-05-07T05:05:59;13.80;99.90
6357;DHT22;3211;53.452;-2.264;2023-05-07T05:08:41;13.90;99.90
6357;DHT22;3211;53.452;-2.264;2023-05-07T05:11:24;13.80;99.90
6357;DHT22;3211;53.452;-2.264;2023-05-07T05:14:06;13.70;99.90
6357;DHT22;3211;53.452;-2.264;2023-05-07T05:16:48;13.60;99.90
6357;DHT22;3211;53.452;-2.264;2023-05-07T05:19:30;13.60;99.90
6357;DHT22;3211;53.452;-2.264;2023-05-07T05:22:12;13.30;99.90
6357;DHT22;3211;53.452;-2.264;2023-05-07T05:24:54;13.20;99.90
6357;DHT22;3211;53.452;-2.264;2023-05-07T05:27:37;13.10;99.90
6357;DHT22;3211;53.452;-2.264;2023-05-07T05:30:19;13.10;99.90
6357;DHT22;3211;53.452;-2.264;2023-05-07T05:33:01;13.00;99.90
6357;DHT22;3211;53.452;-2.264;2023-05-07T05:35:43;13.00;99.90
6357;DHT22;3211;53.452;-2.264;2023-05-07T05:38:25;12.80;99.90
6357;DHT22;3211;53.452;-2.264;2023-05-07T05:41:07;12.80;99.90
6357;DHT22;3211;53.452;-2.264;2023-05-07T05:43:51;12.70;99.90
6357;DHT22;3211;53.452;-2.264;2023-05-07T05:46:32;12.70;99.90
6357;DHT22;3211;53.452;-2.264;2023-05-07T05:49:14;12.80;99.90
6357;DHT22;3211;53.452;-2.264;2023-05-07T05:51:56;12.70;99.90
6357;DHT22;3211;53.452;-2.264;2023-05-07T05:54:38;12.80;99.90
6357;DHT22;3211;53.452;-2.264;2023-05-07T05:57:20;12.70;99.90
6357;DHT22;3211;53.452;-2.264;2023-05-07T06:00:05;12.70;99.90
6357;DHT22;3211;53.452;-2.264;2023-05-07T06:02:48;12.80;99.90
6357;DHT22;3211;53.452;-2.264;2023-05-07T06:05:30;12.80;99.90
6357;DHT22;3211;53.452;-2.264;2023-05-07T06:08:12;12.80;99.90
6357;DHT22;3211;53.452;-2.264;2023-05-07T06:10:54;12.80;99.90
6357;DHT22;3211;53.452;-2.264;2023-05-07T06:13:36;12.90;99.90
6357;DHT22;3211;53.452;-2.264;2023-05-07T06:16:19;12.70;99.90
6357;DHT22;3211;53.452;-2.264;2023-05-07T06:19:01;12.80;99.90
6357;DHT22;3211;53.452;-2.264;2023-05-07T06:21:43;12.90;99.90
6357;DHT22;3211;53.452;-2.264;2023-05-07T06:24:25;12.90;99.90
6357;DHT22;3211;53.452;-2.264;2023-05-07T06:27:07;12.90;99.90
6357;DHT22;3211;53.452;-2.264;2023-05-07T06:29:50;12.90;99.90
6357;DHT22;3211;53.452;-2.264;2023-05-07T06:32:33;13.00;99.90
6357;DHT22;3211;53.452;-2.264;2023-05-07T06:35:15;13.00;99.90
6357;DHT22;3211;53.452;-2.264;2023-05-07T06:37:57;13.20;99.90
6357;DHT22;3211;53.452;-2.264;2023-05-07T06:40:39;13.20;99.90
6357;DHT22;3211;53.452;-2.264;2023-05-07T06:43:21;13.20;99.90
6357;DHT22;3211;53.452;-2.264;2023-05-07T06:46:03;13.30;99.90
6357;DHT22;3211;53.452;-2.264;2023-05-07T06:48:47;13.30;99.90
6357;DHT22;3211;53.452;-2.264;2023-05-07T06:51:29;13.30;99.90
6357;DHT22;3211;53.452;-2.264;2023-05-07T06:54:11;13.50;99.90
6357;DHT22;3211;53.452;-2.264;2023-05-07T06:56:53;13.60;99.90
6357;DHT22;3211;53.452;-2.264;2023-05-07T06:59:35;13.50;99.90
6357;DHT22;3211;53.452;-2.264;2023-05-07T07:02:17;13.50;99.90
6357;DHT22;3211;53.452;-2.264;2023-05-07T07:05:00;13.50;99.90
6357;DHT22;3211;53.452;-2.264;2023-05-07T07:07:42;13.40;99.90
6357;DHT22;3211;53.452;-2.264;2023-05-07T07:10:24;13.60;99.90
6357;DHT22;3211;53.452;-2.264;2023-05-07T07:13:06;13.60;99.90
6357;DHT22;3211;53.452;-2.264;2023-05-07T07:15:55;13.60;99.90
6357;DHT22;3211;53.452;-2.264;2023-05-07T07:18:38;13.70;99.90
6357;DHT22;3211;53.452;-2.264;2023-05-07T07:21:20;13.80;99.90
6357;DHT22;3211;53.452;-2.264;2023-05-07T07:24:02;13.70;99.90
6357;DHT22;3211;53.452;-2.264;2023-05-07T07:26:44;13.70;99.90
6357;DHT22;3211;53.452;-2.264;2023-05-07T07:29:26;13.80;99.90
6357;DHT22;3211;53.452;-2.264;2023-05-07T07:32:10;13.60;99.90
6357;DHT22;3211;53.452;-2.264;2023-05-07T07:34:52;13.70;99.90
6357;DHT22;3211;53.452;-2.264;2023-05-07T07:37:33;13.70;99.90
6357;DHT22;3211;53.452;-2.264;2023-05-07T07:40:16;13.90;99.90
6357;DHT22;3211;53.452;-2.264;2023-05-07T07:42:58;14.00;99.90
6357;DHT22;3211;53.452;-2.264;2023-05-07T07:45:41;14.00;99.90
6357;DHT22;3211;53.452;-2.264;2023-05-07T07:48:25;13.90;99.90
6357;DHT22;3211;53.452;-2.264;2023-05-07T07:51:07;14.10;99.90
6357;DHT22;3211;53.452;-2.264;2023-05-07T07:53:49;14.20;99.90
6357;DHT22;3211;53.452;-2.264;2023-05-07T07:56:32;14.20;99.90
6357;DHT22;3211;53.452;-2.264;2023-05-07T07:59:14;14.40;99.90
6357;DHT22;3211;53.452;-2.264;2023-05-07T08:01:59;14.50;99.90
6357;DHT22;3211;53.452;-2.264;2023-05-07T08:04:42;14.50;99.90
6357;DHT22;3211;53.452;-2.264;2023-05-07T08:07:25;14.50;99.90
6357;DHT22;3211;53.452;-2.264;2023-05-07T08:10:07;14.50;99.90
6357;DHT22;3211;53.452;-2.264;2023-05-07T08:12:50;14.70;99.90
6357;DHT22;3211;53.452;-2.264;2023-05-07T08:15:32;14.70;99.90
6357;DHT22;3211;53.452;-2.264;2023-05-07T08:18:14;14.80;99.90
6357;DHT22;3211;53.452;-2.264;2023-05-07T08:20:57;14.80;99.90
6357;DHT22;3211;53.452;-2.264;2023-05-07T08:23:39;14.80;99.90
6357;DHT22;3211;53.452;-2.264;2023-05-07T08:26:21;14.90;99.90
6357;DHT22;3211;53.452;-2.264;2023-05-07T08:29:03;15.10;99.90
6357;DHT22;3211;53.452;-2.264;2023-05-07T08:31:45;15.10;99.90
6357;DHT22;3211;53.452;-2.264;2023-05-07T08:34:27;15.10;99.90
6357;DHT22;3211;53.452;-2.264;2023-05-07T08:37:10;15.30;99.90
6357;DHT22;3211;53.452;-2.264;2023-05-07T08:39:52;15.40;99.90
6357;DHT22;3211;53.452;-2.264;2023-05-07T08:42:36;15.40;99.90
6357;DHT22;3211;53.452;-2.264;2023-05-07T08:45:19;15.30;99.90
6357;DHT22;3211;53.452;-2.264;2023-05-07T08:48:03;15.30;99.90
6357;DHT22;3211;53.452;-2.264;2023-05-07T08:50:47;15.20;99.90
6357;DHT22;3211;53.452;-2.264;2023-05-07T08:53:30;15.40;99.90
6357;DHT22;3211;53.452;-2.264;2023-05-07T08:56:13;15.40;99.90
6357;DHT22;3211;53.452;-2.264;2023-05-07T08:58:55;15.50;99.90
6357;DHT22;3211;53.452;-2.264;2023-05-07T09:01:39;15.60;99.90
6357;DHT22;3211;53.452;-2.264;2023-05-07T09:04:21;15.80;99.90
6357;DHT22;3211;53.452;-2.264;2023-05-07T09:07:04;16.00;99.90
6357;DHT22;3211;53.452;-2.264;2023-05-07T09:09:47;15.90;99.90
6357;DHT22;3211;53.452;-2.264;2023-05-07T09:12:29;16.00;99.90
6357;DHT22;3211;53.452;-2.264;2023-05-07T09:15:11;16.10;99.90
6357;DHT22;3211;53.452;-2.264;2023-05-07T09:17:53;16.20;99.90
6357;DHT22;3211;53.452;-2.264;2023-05-07T09:20:36;16.40;99.90
6357;DHT22;3211;53.452;-2.264;2023-05-07T09:23:19;16.30;99.90
6357;DHT22;3211;53.452;-2.264;2023-05-07T09:26:03;16.40;99.90
6357;DHT22;3211;53.452;-2.264;2023-05-07T09:28:48;16.40;99.90
6357;DHT22;3211;53.452;-2.264;2023-05-07T09:31:30;16.20;99.90
6357;DHT22;3211;53.452;-2.264;2023-05-07T09:34:12;16.10;99.90
6357;DHT22;3211;53.452;-2.264;2023-05-07T09:36:54;16.10;99.90
6357;DHT22;3211;53.452;-2.264;2023-05-07T09:39:40;16.00;99.90
6357;DHT22;3211;53.452;-2.264;2023-05-07T09:42:27;16.00;99.90
6357;DHT22;3211;53.452;-2.264;2023-05-07T09:45:09;15.90;99.90
6357;DHT22;3211;53.452;-2.264;2023-05-07T09:47:54;15.90;99.90
6357;DHT22;3211;53.452;-2.264;2023-05-07T09:50:43;16.10;99.90
6357;DHT22;3211;53.452;-2.264;2023-05-07T09:53:29;16.30;99.90
6357;DHT22;3211;53.452;-2.264;2023-05-07T09:56:12;16.60;99.90
6357;DHT22;3211;53.452;-2.264;2023-05-07T09:58:57;16.90;99.90
6357;DHT22;3211;53.452;-2.264;2023-05-07T10:01:41;16.70;99.90
6357;DHT22;3211;53.452;-2.264;2023-05-07T10:04:24;16.60;99.90
6357;DHT22;3211;53.452;-2.264;2023-05-07T10:07:07;16.60;99.90
6357;DHT22;3211;53.452;-2.264;2023-05-07T10:09:50;16.50;99.90
6357;DHT22;3211;53.452;-2.264;2023-05-07T10:12:33;16.70;99.90
6357;DHT22;3211;53.452;-2.264;2023-05-07T10:15:21;16.90;99.90
6357;DHT22;3211;53.452;-2.264;2023-05-07T10:18:06;17.10;99.90
6357;DHT22;3211;53.452;-2.264;2023-05-07T10:20:50;17.30;99.90
6357;DHT22;3211;53.452;-2.264;2023-05-07T10:23:33;17.20;99.90
6357;DHT22;3211;53.452;-2.264;2023-05-07T10:26:18;17.20;99.90
6357;DHT22;3211;53.452;-2.264;2023-05-07T10:29:04;17.40;99.90
6357;DHT22;3211;53.452;-2.264;2023-05-07T10:31:59;17.30;99.90
6357;DHT22;3211;53.452;-2.264;2023-05-07T10:34:48;17.20;99.90
6357;DHT22;3211;53.452;-2.264;2023-05-07T10:37:31;17.20;99.90
6357;DHT22;3211;53.452;-2.264;2023-05-07T10:40:14;17.10;99.90
6357;DHT22;3211;53.452;-2.264;2023-05-07T10:42:59;17.10;99.90
6357;DHT22;3211;53.452;-2.264;2023-05-07T10:45:41;17.20;99.90
6357;DHT22;3211;53.452;-2.264;2023-05-07T10:48:24;17.30;99.90
6357;DHT22;3211;53.452;-2.264;2023-05-07T10:51:20;17.10;99.90
6357;DHT22;3211;53.452;-2.264;2023-05-07T10:54:21;16.90;99.90
6357;DHT22;3211;53.452;-2.264;2023-05-07T10:57:34;17.00;99.90
6357;DHT22;3211;53.452;-2.264;2023-05-07T11:00:41;17.00;99.90
6357;DHT22;3211;53.452;-2.264;2023-05-07T11:03:24;17.60;99.90
6357;DHT22;3211;53.452;-2.264;2023-05-07T11:06:11;17.90;99.90
6357;DHT22;3211;53.452;-2.264;2023-05-07T11:08:54;18.50;99.90
6357;DHT22;3211;53.452;-2.264;2023-05-07T11:11:45;18.90;99.90
6357;DHT22;3211;53.452;-2.264;2023-05-07T11:14:43;18.70;99.90
6357;DHT22;3211;53.452;-2.264;2023-05-07T11:17:25;18.40;99.90
6357;DHT22;3211;53.452;-2.264;2023-05-07T11:20:13;18.00;99.90
6357;DHT22;3211;53.452;-2.264;2023-05-07T11:22:56;17.90;99.90
6357;DHT22;3211;53.452;-2.264;2023-05-07T11:25:38;18.00;99.90
6357;DHT22;3211;53.452;-2.264;2023-05-07T11:28:20;17.90;99.90
6357;DHT22;3211;53.452;-2.264;2023-05-07T11:31:02;18.20;99.90
6357;DHT22;3211;53.452;-2.264;2023-05-07T11:33:45;18.60;94.40
6357;DHT22;3211;53.452;-2.264;2023-05-07T11:36:31;19.00;92.30
6357;DHT22;3211;53.452;-2.264;2023-05-07T11:39:27;19.20;59.60
6357;DHT22;3211;53.452;-2.264;2023-05-07T11:42:27;19.40;56.10
6357;DHT22;3211;53.452;-2.264;2023-05-07T11:45:10;19.00;57.30
6357;DHT22;3211;53.452;-2.264;2023-05-07T11:47:52;19.50;67.00
6357;DHT22;3211;53.452;-2.264;2023-05-07T11:50:34;19.30;42.70
6357;DHT22;3211;53.452;-2.264;2023-05-07T11:53:17;19.70;37.60
6357;DHT22;3211;53.452;-2.264;2023-05-07T11:55:59;20.00;41.80
6357;DHT22;3211;53.452;-2.264;2023-05-07T11:58:42;20.30;27.10
6357;DHT22;3211;53.452;-2.264;2023-05-07T12:01:24;20.20;17.30
6357;DHT22;3211;53.452;-2.264;2023-05-07T12:04:06;20.50;35.60
6357;DHT22;3211;53.452;-2.264;2023-05-07T12:06:48;20.70;10.00
6357;DHT22;3211;53.452;-2.264;2023-05-07T12:09:34;20.50;23.10
6357;DHT22;3211;53.452;-2.264;2023-05-07T12:12:16;20.00;21.90
6357;DHT22;3211;53.452;-2.264;2023-05-07T12:14:57;19.70;27.70
6357;DHT22;3211;53.452;-2.264;2023-05-07T12:17:40;19.90;27.00
6357;DHT22;3211;53.452;-2.264;2023-05-07T12:20:22;20.20;17.80
6357;DHT22;3211;53.452;-2.264;2023-05-07T12:23:04;20.80;6.60
6357;DHT22;3211;53.452;-2.264;2023-05-07T12:25:48;20.80;1.10
6357;DHT22;3211;53.452;-2.264;2023-05-07T12:28:33;20.80;1.00
6357;DHT22;3211;53.452;-2.264;2023-05-07T12:31:17;21.40;1.00
6357;DHT22;3211;53.452;-2.264;2023-05-07T12:33:59;21.60;1.00
6357;DHT22;3211;53.452;-2.264;2023-05-07T12:36:41;21.20;1.00
6357;DHT22;3211;53.452;-2.264;2023-05-07T12:39:23;21.10;1.00
6357;DHT22;3211;53.452;-2.264;2023-05-07T12:42:07;20.70;1.00
6357;DHT22;3211;53.452;-2.264;2023-05-07T12:44:49;20.70;1.00
6357;DHT22;3211;53.452;-2.264;2023-05-07T12:47:31;20.60;1.00
6357;DHT22;3211;53.452;-2.264;2023-05-07T12:50:14;20.30;1.00
6357;DHT22;3211;53.452;-2.264;2023-05-07T12:52:56;19.70;1.00
6357;DHT22;3211;53.452;-2.264;2023-05-07T12:55:43;20.20;4.10
6357;DHT22;3211;53.452;-2.264;2023-05-07T12:58:28;20.30;1.00
6357;DHT22;3211;53.452;-2.264;2023-05-07T13:01:10;20.20;1.00
6357;DHT22;3211;53.452;-2.264;2023-05-07T13:03:56;19.90;1.00
6357;DHT22;3211;53.452;-2.264;2023-05-07T13:06:38;20.00;1.00
6357;DHT22;3211;53.452;-2.264;2023-05-07T13:09:20;20.20;1.00
6357;DHT22;3211;53.452;-2.264;2023-05-07T13:12:02;20.50;1.00
6357;DHT22;3211;53.452;-2.264;2023-05-07T13:14:45;20.50;1.00
6357;DHT22;3211;53.452;-2.264;2023-05-07T13:17:27;20.70;5.30
6357;DHT22;3211;53.452;-2.264;2023-05-07T13:20:12;20.90;1.00
6357;DHT22;3211;53.452;-2.264;2023-05-07T13:22:54;20.70;1.00
6357;DHT22;3211;53.452;-2.264;2023-05-07T13:25:36;20.70;1.00
6357;DHT22;3211;53.452;-2.264;2023-05-07T13:28:18;20.80;1.00
6357;DHT22;3211;53.452;-2.264;2023-05-07T13:31:02;20.60;1.00
6357;DHT22;3211;53.452;-2.264;2023-05-07T13:33:44;21.00;1.00
6357;DHT22;3211;53.452;-2.264;2023-05-07T13:36:26;20.80;1.00
6357;DHT22;3211;53.452;-2.264;2023-05-07T13:39:09;20.40;1.00
6357;DHT22;3211;53.452;-2.264;2023-05-07T13:41:51;20.30;1.00
6357;DHT22;3211;53.452;-2.264;2023-05-07T13:44:33;20.50;1.00
6357;DHT22;3211;53.452;-2.264;2023-05-07T13:47:16;20.50;1.00
6357;DHT22;3211;53.452;-2.264;2023-05-07T13:49:58;21.50;1.00
6357;DHT22;3211;53.452;-2.264;2023-05-07T13:52:41;21.50;1.00
6357;DHT22;3211;53.452;-2.264;2023-05-07T13:55:24;21.50;1.00
6357;DHT22;3211;53.452;-2.264;2023-05-07T13:58:06;22.30;1.00
6357;DHT22;3211;53.452;-2.264;2023-05-07T14:00:48;22.20;1.00
6357;DHT22;3211;53.452;-2.264;2023-05-07T14:03:32;22.80;1.00
6357;DHT22;3211;53.452;-2.264;2023-05-07T14:06:14;22.90;1.00
6357;DHT22;3211;53.452;-2.264;2023-05-07T14:08:56;22.70;1.00
6357;DHT22;3211;53.452;-2.264;2023-05-07T14:11:38;23.00;1.00
6357;DHT22;3211;53.452;-2.264;2023-05-07T14:14:20;22.40;1.00
6357;DHT22;3211;53.452;-2.264;2023-05-07T14:17:02;22.10;1.00
6357;DHT22;3211;53.452;-2.264;2023-05-07T14:19:46;21.90;1.00
6357;DHT22;3211;53.452;-2.264;2023-05-07T14:22:28;22.60;1.00
6357;DHT22;3211;53.452;-2.264;2023-05-07T14:25:10;22.10;1.00
6357;DHT22;3211;53.452;-2.264;2023-05-07T14:27:52;21.50;1.00
6357;DHT22;3211;53.452;-2.264;2023-05-07T14:30:33;21.20;1.00
6357;DHT22;3211;53.452;-2.264;2023-05-07T14:33:15;20.90;1.00
6357;DHT22;3211;53.452;-2.264;2023-05-07T14:35:59;21.10;1.00
6357;DHT22;3211;53.452;-2.264;2023-05-07T14:38:41;21.60;1.00
6357;DHT22;3211;53.452;-2.264;2023-05-07T14:41:23;21.70;1.00
6357;DHT22;3211;53.452;-2.264;2023-05-07T14:44:05;21.50;1.00
6357;DHT22;3211;53.452;-2.264;2023-05-07T14:46:46;21.20;1.00
6357;DHT22;3211;53.452;-2.264;2023-05-07T14:49:28;21.10;1.00
6357;DHT22;3211;53.452;-2.264;2023-05-07T14:52:12;20.90;1.00
6357;DHT22;3211;53.452;-2.264;2023-05-07T14:54:54;20.90;1.00
6357;DHT22;3211;53.452;-2.264;2023-05-07T14:57:36;21.10;1.00
6357;DHT22;3211;53.452;-2.264;2023-05-07T15:00:19;20.80;1.00
6357;DHT22;3211;53.452;-2.264;2023-05-07T15:03:05;20.80;1.00
6357;DHT22;3211;53.452;-2.264;2023-05-07T15:05:47;20.70;1.00
6357;DHT22;3211;53.452;-2.264;2023-05-07T15:08:33;21.80;1.00
6357;DHT22;3211;53.452;-2.264;2023-05-07T15:11:15;21.70;1.00
6357;DHT22;3211;53.452;-2.264;2023-05-07T15:13:57;21.30;1.00
6357;DHT22;3211;53.452;-2.264;2023-05-07T15:16:39;21.00;1.00
6357;DHT22;3211;53.452;-2.264;2023-05-07T15:19:20;21.20;1.00
6357;DHT22;3211;53.452;-2.264;2023-05-07T15:22:05;23.50;1.00
6357;DHT22;3211;53.452;-2.264;2023-05-07T15:24:48;22.50;1.00
6357;DHT22;3211;53.452;-2.264;2023-05-07T15:27:30;25.80;1.00
6357;DHT22;3211;53.452;-2.264;2023-05-07T15:30:13;26.70;99.90
6357;DHT22;3211;53.452;-2.264;2023-05-07T15:32:56;26.90;99.90
6357;DHT22;3211;53.452;-2.264;2023-05-07T15:35:38;26.70;99.90
6357;DHT22;3211;53.452;-2.264;2023-05-07T15:38:19;27.30;99.90
6357;DHT22;3211;53.452;-2.264;2023-05-07T15:41:03;24.80;1.00
6357;DHT22;3211;53.452;-2.264;2023-05-07T15:43:46;22.60;1.00
6357;DHT22;3211;53.452;-2.264;2023-05-07T15:46:28;21.80;1.00
6357;DHT22;3211;53.452;-2.264;2023-05-07T15:49:10;21.30;1.00
6357;DHT22;3211;53.452;-2.264;2023-05-07T15:51:52;20.90;1.00
6357;DHT22;3211;53.452;-2.264;2023-05-07T15:54:35;20.90;1.00
6357;DHT22;3211;53.452;-2.264;2023-05-07T15:57:20;23.90;1.00
6357;DHT22;3211;53.452;-2.264;2023-05-07T16:00:02;23.10;1.00
6357;DHT22;3211;53.452;-2.264;2023-05-07T16:02:46;22.00;1.00
6357;DHT22;3211;53.452;-2.264;2023-05-07T16:05:28;21.20;1.00
6357;DHT22;3211;53.452;-2.264;2023-05-07T16:08:10;21.00;1.00
6357;DHT22;3211;53.452;-2.264;2023-05-07T16:10:52;20.70;1.00
6357;DHT22;3211;53.452;-2.264;2023-05-07T16:13:35;20.80;1.00
6357;DHT22;3211;53.452;-2.264;2023-05-07T16:16:17;21.00;1.00
6357;DHT22;3211;53.452;-2.264;2023-05-07T16:18:59;20.70;1.00
6357;DHT22;3211;53.452;-2.264;2023-05-07T16:21:42;20.70;1.00
6357;DHT22;3211;53.452;-2.264;2023-05-07T16:24:24;20.50;1.00
6357;DHT22;3211;53.452;-2.264;2023-05-07T16:27:06;20.30;1.00
6357;DHT22;3211;53.452;-2.264;2023-05-07T16:29:49;20.20;1.00
6357;DHT22;3211;53.452;-2.264;2023-05-07T16:32:31;20.20;1.00
6357;DHT22;3211;53.452;-2.264;2023-05-07T16:35:13;20.00;1.00
6357;DHT22;3211;53.452;-2.264;2023-05-07T16:37:55;20.00;1.00
6357;DHT22;3211;53.452;-2.264;2023-05-07T16:40:37;19.80;4.30
6357;DHT22;3211;53.452;-2.264;2023-05-07T16:43:19;19.70;10.90
6357;DHT22;3211;53.452;-2.264;2023-05-07T16:46:03;19.70;12.80
6357;DHT22;3211;53.452;-2.264;2023-05-07T16:48:45;19.60;27.00
6357;DHT22;3211;53.452;-2.264;2023-05-07T16:51:27;19.40;47.20
6357;DHT22;3211;53.452;-2.264;2023-05-07T16:54:09;19.60;59.20
6357;DHT22;3211;53.452;-2.264;2023-05-07T16:56:51;19.70;48.40
6357;DHT22;3211;53.452;-2.264;2023-05-07T16:59:32;19.90;46.20
6357;DHT22;3211;53.452;-2.264;2023-05-07T17:02:16;19.90;44.60
6357;DHT22;3211;53.452;-2.264;2023-05-07T17:04:58;19.70;50.90
6357;DHT22;3211;53.452;-2.264;2023-05-07T17:07:42;19.50;53.50
6357;DHT22;3211;53.452;-2.264;2023-05-07T17:10:24;19.80;52.90
6357;DHT22;3211;53.452;-2.264;2023-05-07T17:13:06;19.70;46.20
6357;DHT22;3211;53.452;-2.264;2023-05-07T17:15:48;19.70;46.40
6357;DHT22;3211;53.452;-2.264;2023-05-07T17:18:31;19.50;56.00
6357;DHT22;3211;53.452;-2.264;2023-05-07T17:21:13;19.30;54.80
6357;DHT22;3211;53.452;-2.264;2023-05-07T17:23:55;19.20;58.10
6357;DHT22;3211;53.452;-2.264;2023-05-07T17:26:37;19.20;66.70
6357;DHT22;3211;53.452;-2.264;2023-05-07T17:29:22;19.20;63.80
6357;DHT22;3211;53.452;-2.264;2023-05-07T17:32:04;18.90;67.50